sensor_id;sensor_type;location;lat;lon;timestamp;P1;durP1;ratioP1;P2;durP2;ratioP2
20888;SDS011;10604;51.976;7.594;2023-05-24T00:01:56;13.80;;;2.97;;
20888;SDS011;10604;51.976;7.594;2023-05-24T00:04:21;9.40;;;2.93;;
20888;SDS011;10604;51.976;7.594;2023-05-24T00:06:49;11.07;;;3.33;;
20888;SDS011;10604;51.976;7.594;2023-05-24T00:09:15;11.00;;;2.90;;
20888;SDS011;10604;51.976;7.594;2023-05-24T00:11:40;13.73;;;4.20;;
20888;SDS011;10604;51.976;7.594;2023-05-24T00:14:05;8.47;;;3.13;;
20888;SDS011;10604;51.976;7.594;2023-05-24T00:16:31;10.20;;;3.47;;
20888;SDS011;10604;51.976;7.594;2023-05-24T00:18:56;10.40;;;3.17;;
20888;SDS011;10604;51.976;7.594;2023-05-24T00:21:23;11.20;;;3.07;;
20888;SDS011;10604;51.976;7.594;2023-05-24T00:23:48;8.38;;;3.05;;
20888;SDS011;10604;51.976;7.594;2023-05-24T00:26:16;9.63;;;3.20;;
20888;SDS011;10604;51.976;7.594;2023-05-24T00:28:41;9.27;;;2.97;;
20888;SDS011;10604;51.976;7.594;2023-05-24T00:31:07;9.43;;;3.38;;
20888;SDS011;10604;51.976;7.594;2023-05-24T00:33:32;13.13;;;3.47;;
20888;SDS011;10604;51.976;7.594;2023-05-24T00:35:58;10.02;;;3.17;;
20888;SDS011;10604;51.976;7.594;2023-05-24T00:38:24;11.37;;;3.30;;
20888;SDS011;10604;51.976;7.594;2023-05-24T00:40:50;12.82;;;3.50;;
20888;SDS011;10604;51.976;7.594;2023-05-24T00:43:16;12.10;;;3.50;;
20888;SDS011;10604;51.976;7.594;2023-05-24T00:45:42;8.20;;;2.85;;
20888;SDS011;10604;51.976;7.594;2023-05-24T00:48:08;8.93;;;3.30;;
20888;SDS011;10604;51.976;7.594;2023-05-24T00:50:34;10.52;;;3.25;;
20888;SDS011;10604;51.976;7.594;2023-05-24T00:53:01;10.20;;;3.33;;
20888;SDS011;10604;51.976;7.594;2023-05-24T00:55:27;8.30;;;3.22;;
20888;SDS011;10604;51.976;7.594;2023-05-24T00:57:54;9.20;;;3.17;;
20888;SDS011;10604;51.976;7.594;2023-05-24T01:00:21;9.48;;;3.50;;
20888;SDS011;10604;51.976;7.594;2023-05-24T01:02:47;11.13;;;3.17;;
20888;SDS011;10604;51.976;7.594;2023-05-24T01:05:14;13.88;;;4.00;;
20888;SDS011;10604;51.976;7.594;2023-05-24T01:10:31;12.80;;;3.67;;
20888;SDS011;10604;51.976;7.594;2023-05-24T01:13:23;10.47;;;3.70;;
20888;SDS011;10604;51.976;7.594;2023-05-24T01:18:32;12.47;;;3.90;;
20888;SDS011;10604;51.976;7.594;2023-05-24T01:23:40;9.93;;;3.55;;
20888;SDS011;10604;51.976;7.594;2023-05-24T01:29:03;11.43;;;3.17;;
20888;SDS011;10604;51.976;7.594;2023-05-24T01:31:29;12.60;;;4.22;;
20888;SDS011;10604;51.976;7.594;2023-05-24T01:33:54;9.03;;;3.53;;
20888;SDS011;10604;51.976;7.594;2023-05-24T01:36:20;9.60;;;3.57;;
20888;SDS011;10604;51.976;7.594;2023-05-24T01:38:45;12.27;;;3.70;;
20888;SDS011;10604;51.976;7.594;2023-05-24T01:50:06;13.15;;;3.83;;
20888;SDS011;10604;51.976;7.594;2023-05-24T01:52:41;11.57;;;3.97;;
20888;SDS011;10604;51.976;7.594;2023-05-24T01:55:08;9.25;;;3.70;;
20888;SDS011;10604;51.976;7.594;2023-05-24T01:57:36;12.23;;;3.47;;
20888;SDS011;10604;51.976;7.594;2023-05-24T02:00:05;7.93;;;3.28;;
20888;SDS011;10604;51.976;7.594;2023-05-24T02:02:32;12.48;;;3.60;;
20888;SDS011;10604;51.976;7.594;2023-05-24T02:04:57;10.43;;;3.40;;
20888;SDS011;10604;51.976;7.594;2023-05-24T02:07:23;9.98;;;3.40;;
20888;SDS011;10604;51.976;7.594;2023-05-24T02:09:49;13.65;;;4.30;;
20888;SDS011;10604;51.976;7.594;2023-05-24T02:12:15;10.20;;;3.80;;
20888;SDS011;10604;51.976;7.594;2023-05-24T02:14:40;10.87;;;3.10;;
20888;SDS011;10604;51.976;7.594;2023-05-24T02:17:06;9.57;;;3.37;;
20888;SDS011;10604;51.976;7.594;2023-05-24T02:19:32;9.93;;;3.50;;
20888;SDS011;10604;51.976;7.594;2023-05-24T02:21:58;14.13;;;3.95;;
20888;SDS011;10604;51.976;7.594;2023-05-24T02:24:24;12.93;;;3.80;;
20888;SDS011;10604;51.976;7.594;2023-05-24T02:26:49;10.83;;;3.70;;
20888;SDS011;10604;51.976;7.594;2023-05-24T02:29:14;11.30;;;3.67;;
20888;SDS011;10604;51.976;7.594;2023-05-24T02:31:40;10.97;;;4.03;;
20888;SDS011;10604;51.976;7.594;2023-05-24T02:34:05;10.43;;;3.70;;
20888;SDS011;10604;51.976;7.594;2023-05-24T02:36:31;9.60;;;3.63;;
20888;SDS011;10604;51.976;7.594;2023-05-24T02:39:00;10.52;;;4.32;;
20888;SDS011;10604;51.976;7.594;2023-05-24T02:41:25;10.10;;;3.90;;
20888;SDS011;10604;51.976;7.594;2023-05-24T02:43:51;14.67;;;4.07;;
20888;SDS011;10604;51.976;7.594;2023-05-24T02:46:16;11.65;;;4.07;;
20888;SDS011;10604;51.976;7.594;2023-05-24T02:48:41;12.70;;;4.57;;
20888;SDS011;10604;51.976;7.594;2023-05-24T02:51:07;13.90;;;4.33;;
20888;SDS011;10604;51.976;7.594;2023-05-24T02:53:32;11.90;;;4.10;;
20888;SDS011;10604;51.976;7.594;2023-05-24T02:55:58;14.43;;;4.70;;
20888;SDS011;10604;51.976;7.594;2023-05-24T02:58:25;11.33;;;3.80;;
20888;SDS011;10604;51.976;7.594;2023-05-24T03:00:53;10.80;;;3.95;;
20888;SDS011;10604;51.976;7.594;2023-05-24T03:03:18;14.45;;;5.10;;
20888;SDS011;10604;51.976;7.594;2023-05-24T03:05:44;11.67;;;4.60;;
20888;SDS011;10604;51.976;7.594;2023-05-24T03:08:10;9.27;;;4.07;;
20888;SDS011;10604;51.976;7.594;2023-05-24T03:10:35;9.77;;;4.30;;
20888;SDS011;10604;51.976;7.594;2023-05-24T03:13:00;12.67;;;4.27;;
20888;SDS011;10604;51.976;7.594;2023-05-24T03:15:26;14.60;;;5.22;;
20888;SDS011;10604;51.976;7.594;2023-05-24T03:17:51;15.80;;;4.80;;
20888;SDS011;10604;51.976;7.594;2023-05-24T03:20:16;13.73;;;4.73;;
20888;SDS011;10604;51.976;7.594;2023-05-24T03:22:42;14.13;;;4.93;;
20888;SDS011;10604;51.976;7.594;2023-05-24T03:25:07;14.73;;;4.57;;
20888;SDS011;10604;51.976;7.594;2023-05-24T03:27:34;15.27;;;5.07;;
20888;SDS011;10604;51.976;7.594;2023-05-24T03:30:00;12.15;;;4.90;;
20888;SDS011;10604;51.976;7.594;2023-05-24T03:32:25;16.80;;;5.13;;
20888;SDS011;10604;51.976;7.594;2023-05-24T03:34:50;11.77;;;4.80;;
20888;SDS011;10604;51.976;7.594;2023-05-24T03:37:16;12.57;;;4.75;;
20888;SDS011;10604;51.976;7.594;2023-05-24T03:39:42;14.60;;;4.95;;
20888;SDS011;10604;51.976;7.594;2023-05-24T03:42:07;13.73;;;4.87;;
20888;SDS011;10604;51.976;7.594;2023-05-24T03:44:33;15.07;;;5.10;;
20888;SDS011;10604;51.976;7.594;2023-05-24T03:46:58;11.95;;;4.78;;
20888;SDS011;10604;51.976;7.594;2023-05-24T03:49:24;21.20;;;5.93;;
20888;SDS011;10604;51.976;7.594;2023-05-24T03:51:49;14.60;;;5.07;;
20888;SDS011;10604;51.976;7.594;2023-05-24T03:54:15;12.90;;;5.53;;
20888;SDS011;10604;51.976;7.594;2023-05-24T03:56:41;13.77;;;5.38;;
20888;SDS011;10604;51.976;7.594;2023-05-24T03:59:07;16.63;;;5.40;;
20888;SDS011;10604;51.976;7.594;2023-05-24T04:01:32;17.45;;;5.70;;
20888;SDS011;10604;51.976;7.594;2023-05-24T04:04:00;18.90;;;5.85;;
20888;SDS011;10604;51.976;7.594;2023-05-24T04:06:26;18.17;;;6.07;;
20888;SDS011;10604;51.976;7.594;2023-05-24T04:08:55;17.02;;;5.47;;
20888;SDS011;10604;51.976;7.594;2023-05-24T04:11:23;17.88;;;5.55;;
20888;SDS011;10604;51.976;7.594;2023-05-24T04:13:52;12.75;;;5.28;;
20888;SDS011;10604;51.976;7.594;2023-05-24T04:16:19;15.98;;;5.53;;
20888;SDS011;10604;51.976;7.594;2023-05-24T04:18:45;15.07;;;5.20;;
20888;SDS011;10604;51.976;7.594;2023-05-24T04:21:11;18.83;;;5.73;;
20888;SDS011;10604;51.976;7.594;2023-05-24T04:23:36;16.60;;;5.30;;
20888;SDS011;10604;51.976;7.594;2023-05-24T04:26:01;12.90;;;5.60;;
20888;SDS011;10604;51.976;7.594;2023-05-24T04:28:27;17.42;;;5.97;;
20888;SDS011;10604;51.976;7.594;2023-05-24T04:30:52;14.43;;;5.50;;
20888;SDS011;10604;51.976;7.594;2023-05-24T04:33:18;18.13;;;6.10;;
20888;SDS011;10604;51.976;7.594;2023-05-24T04:35:44;18.37;;;6.40;;
20888;SDS011;10604;51.976;7.594;2023-05-24T04:38:11;20.42;;;6.50;;
20888;SDS011;10604;51.976;7.594;2023-05-24T04:40:37;17.33;;;6.63;;
20888;SDS011;10604;51.976;7.594;2023-05-24T04:43:02;16.70;;;6.10;;
20888;SDS011;10604;51.976;7.594;2023-05-24T04:45:28;20.80;;;6.13;;
20888;SDS011;10604;51.976;7.594;2023-05-24T04:47:55;16.13;;;6.20;;
20888;SDS011;10604;51.976;7.594;2023-05-24T04:50:21;21.33;;;6.40;;
20888;SDS011;10604;51.976;7.594;2023-05-24T04:52:46;17.73;;;6.10;;
20888;SDS011;10604;51.976;7.594;2023-05-24T04:55:11;20.80;;;6.73;;
20888;SDS011;10604;51.976;7.594;2023-05-24T04:57:37;17.73;;;6.30;;
20888;SDS011;10604;51.976;7.594;2023-05-24T05:00:02;16.07;;;6.00;;
20888;SDS011;10604;51.976;7.594;2023-05-24T05:02:29;16.88;;;6.07;;
20888;SDS011;10604;51.976;7.594;2023-05-24T05:04:55;16.40;;;6.40;;
20888;SDS011;10604;51.976;7.594;2023-05-24T05:07:20;17.60;;;6.47;;
20888;SDS011;10604;51.976;7.594;2023-05-24T05:09:46;16.80;;;6.53;;
20888;SDS011;10604;51.976;7.594;2023-05-24T05:12:11;18.90;;;6.73;;
20888;SDS011;10604;51.976;7.594;2023-05-24T05:14:37;15.20;;;6.20;;
20888;SDS011;10604;51.976;7.594;2023-05-24T05:17:03;17.90;;;6.15;;
20888;SDS011;10604;51.976;7.594;2023-05-24T05:19:29;17.73;;;6.37;;
20888;SDS011;10604;51.976;7.594;2023-05-24T05:21:55;15.43;;;6.10;;
20888;SDS011;10604;51.976;7.594;2023-05-24T05:24:20;20.13;;;6.10;;
20888;SDS011;10604;51.976;7.594;2023-05-24T05:26:46;18.53;;;6.00;;
20888;SDS011;10604;51.976;7.594;2023-05-24T05:29:11;15.05;;;5.85;;
20888;SDS011;10604;51.976;7.594;2023-05-24T05:31:36;16.47;;;5.97;;
20888;SDS011;10604;51.976;7.594;2023-05-24T05:34:03;19.40;;;6.03;;
20888;SDS011;10604;51.976;7.594;2023-05-24T05:36:29;16.05;;;6.18;;
20888;SDS011;10604;51.976;7.594;2023-05-24T05:38:55;15.20;;;5.80;;
20888;SDS011;10604;51.976;7.594;2023-05-24T05:41:20;17.23;;;6.10;;
20888;SDS011;10604;51.976;7.594;2023-05-24T05:43:46;18.27;;;6.07;;
20888;SDS011;10604;51.976;7.594;2023-05-24T05:46:11;17.15;;;5.90;;
20888;SDS011;10604;51.976;7.594;2023-05-24T05:48:39;18.90;;;6.30;;
20888;SDS011;10604;51.976;7.594;2023-05-24T05:51:04;17.97;;;6.07;;
20888;SDS011;10604;51.976;7.594;2023-05-24T05:53:32;17.80;;;6.03;;
20888;SDS011;10604;51.976;7.594;2023-05-24T05:55:58;19.25;;;6.72;;
20888;SDS011;10604;51.976;7.594;2023-05-24T05:58:23;19.27;;;6.07;;
20888;SDS011;10604;51.976;7.594;2023-05-24T06:00:48;16.47;;;6.10;;
20888;SDS011;10604;51.976;7.594;2023-05-24T06:03:14;15.17;;;5.70;;
20888;SDS011;10604;51.976;7.594;2023-05-24T06:05:40;17.37;;;5.63;;
20888;SDS011;10604;51.976;7.594;2023-05-24T06:08:05;21.20;;;6.00;;
20888;SDS011;10604;51.976;7.594;2023-05-24T06:10:31;17.20;;;5.70;;
20888;SDS011;10604;51.976;7.594;2023-05-24T06:12:56;16.27;;;5.63;;
20888;SDS011;10604;51.976;7.594;2023-05-24T06:15:21;18.27;;;5.70;;
20888;SDS011;10604;51.976;7.594;2023-05-24T06:17:48;17.98;;;5.90;;
20888;SDS011;10604;51.976;7.594;2023-05-24T06:20:14;16.23;;;5.95;;
20888;SDS011;10604;51.976;7.594;2023-05-24T06:22:40;21.20;;;5.90;;
20888;SDS011;10604;51.976;7.594;2023-05-24T06:25:06;20.95;;;6.22;;
20888;SDS011;10604;51.976;7.594;2023-05-24T06:27:32;15.37;;;5.33;;
20888;SDS011;10604;51.976;7.594;2023-05-24T06:29:57;19.38;;;5.88;;
20888;SDS011;10604;51.976;7.594;2023-05-24T06:32:23;20.70;;;5.53;;
20888;SDS011;10604;51.976;7.594;2023-05-24T06:34:48;16.63;;;5.67;;
20888;SDS011;10604;51.976;7.594;2023-05-24T06:37:13;18.33;;;5.80;;
20888;SDS011;10604;51.976;7.594;2023-05-24T06:39:40;18.50;;;5.80;;
20888;SDS011;10604;51.976;7.594;2023-05-24T06:42:05;18.27;;;5.50;;
20888;SDS011;10604;51.976;7.594;2023-05-24T06:44:31;18.33;;;5.60;;
20888;SDS011;10604;51.976;7.594;2023-05-24T06:47:01;17.88;;;5.30;;
20888;SDS011;10604;51.976;7.594;2023-05-24T06:49:26;18.60;;;5.70;;
20888;SDS011;10604;51.976;7.594;2023-05-24T06:51:52;16.08;;;5.43;;
20888;SDS011;10604;51.976;7.594;2023-05-24T06:54:18;15.63;;;5.37;;
20888;SDS011;10604;51.976;7.594;2023-05-24T06:56:43;15.95;;;4.80;;
20888;SDS011;10604;51.976;7.594;2023-05-24T06:59:08;16.53;;;4.97;;
20888;SDS011;10604;51.976;7.594;2023-05-24T07:01:34;16.67;;;5.13;;
20888;SDS011;10604;51.976;7.594;2023-05-24T07:04:03;13.63;;;5.65;;
20888;SDS011;10604;51.976;7.594;2023-05-24T07:06:29;20.07;;;5.47;;
20888;SDS011;10604;51.976;7.594;2023-05-24T07:08:56;17.30;;;5.30;;
20888;SDS011;10604;51.976;7.594;2023-05-24T07:11:21;17.33;;;5.10;;
20888;SDS011;10604;51.976;7.594;2023-05-24T07:13:47;21.00;;;5.20;;
20888;SDS011;10604;51.976;7.594;2023-05-24T07:16:12;12.87;;;4.93;;
20888;SDS011;10604;51.976;7.594;2023-05-24T07:18:37;19.50;;;5.00;;
20888;SDS011;10604;51.976;7.594;2023-05-24T07:21:05;15.27;;;5.07;;
20888;SDS011;10604;51.976;7.594;2023-05-24T07:23:30;16.73;;;4.70;;
20888;SDS011;10604;51.976;7.594;2023-05-24T07:25:56;16.87;;;4.97;;
20888;SDS011;10604;51.976;7.594;2023-05-24T07:28:21;16.90;;;4.97;;
20888;SDS011;10604;51.976;7.594;2023-05-24T07:30:47;17.90;;;5.10;;
20888;SDS011;10604;51.976;7.594;2023-05-24T07:33:12;18.00;;;5.30;;
20888;SDS011;10604;51.976;7.594;2023-05-24T07:35:38;14.68;;;4.80;;
20888;SDS011;10604;51.976;7.594;2023-05-24T07:38:04;17.40;;;5.10;;
20888;SDS011;10604;51.976;7.594;2023-05-24T07:40:29;19.42;;;5.32;;
20888;SDS011;10604;51.976;7.594;2023-05-24T07:42:55;17.97;;;5.30;;
20888;SDS011;10604;51.976;7.594;2023-05-24T07:45:20;14.37;;;4.93;;
20888;SDS011;10604;51.976;7.594;2023-05-24T07:47:46;13.90;;;4.60;;
20888;SDS011;10604;51.976;7.594;2023-05-24T07:50:11;16.67;;;4.60;;
20888;SDS011;10604;51.976;7.594;2023-05-24T07:52:36;14.77;;;4.87;;
20888;SDS011;10604;51.976;7.594;2023-05-24T07:55:03;17.83;;;4.70;;
20888;SDS011;10604;51.976;7.594;2023-05-24T07:57:28;16.73;;;4.73;;
20888;SDS011;10604;51.976;7.594;2023-05-24T07:59:54;14.68;;;4.13;;
20888;SDS011;10604;51.976;7.594;2023-05-24T08:02:19;14.77;;;4.50;;
20888;SDS011;10604;51.976;7.594;2023-05-24T08:04:44;15.00;;;4.30;;
20888;SDS011;10604;51.976;7.594;2023-05-24T08:07:13;14.93;;;5.15;;
20888;SDS011;10604;51.976;7.594;2023-05-24T08:09:38;12.63;;;4.33;;
20888;SDS011;10604;51.976;7.594;2023-05-24T08:12:04;16.48;;;4.38;;
20888;SDS011;10604;51.976;7.594;2023-05-24T08:14:30;14.20;;;5.05;;
20888;SDS011;10604;51.976;7.594;2023-05-24T08:16:55;13.97;;;4.47;;
20888;SDS011;10604;51.976;7.594;2023-05-24T08:19:21;13.48;;;4.55;;
20888;SDS011;10604;51.976;7.594;2023-05-24T08:21:47;18.98;;;4.63;;
20888;SDS011;10604;51.976;7.594;2023-05-24T08:24:12;14.57;;;4.27;;
20888;SDS011;10604;51.976;7.594;2023-05-24T08:26:38;11.83;;;4.70;;
20888;SDS011;10604;51.976;7.594;2023-05-24T08:29:03;17.75;;;5.40;;
20888;SDS011;10604;51.976;7.594;2023-05-24T08:31:29;14.50;;;5.40;;
20888;SDS011;10604;51.976;7.594;2023-05-24T08:33:54;15.23;;;4.70;;
20888;SDS011;10604;51.976;7.594;2023-05-24T08:36:21;12.77;;;4.20;;
20888;SDS011;10604;51.976;7.594;2023-05-24T08:38:47;13.52;;;4.60;;
20888;SDS011;10604;51.976;7.594;2023-05-24T08:41:12;15.43;;;4.30;;
20888;SDS011;10604;51.976;7.594;2023-05-24T08:43:37;12.97;;;4.47;;
20888;SDS011;10604;51.976;7.594;2023-05-24T08:46:03;15.43;;;4.70;;
20888;SDS011;10604;51.976;7.594;2023-05-24T08:48:29;13.82;;;4.50;;
20888;SDS011;10604;51.976;7.594;2023-05-24T08:50:56;14.45;;;4.82;;
20888;SDS011;10604;51.976;7.594;2023-05-24T08:53:22;18.52;;;4.95;;
20888;SDS011;10604;51.976;7.594;2023-05-24T08:55:51;16.77;;;4.63;;
20888;SDS011;10604;51.976;7.594;2023-05-24T08:58:18;14.68;;;4.97;;
20888;SDS011;10604;51.976;7.594;2023-05-24T09:00:44;14.43;;;4.50;;
20888;SDS011;10604;51.976;7.594;2023-05-24T09:03:09;12.38;;;4.38;;
20888;SDS011;10604;51.976;7.594;2023-05-24T09:05:36;15.87;;;4.73;;
20888;SDS011;10604;51.976;7.594;2023-05-24T09:08:01;15.27;;;4.85;;
20888;SDS011;10604;51.976;7.594;2023-05-24T09:10:28;14.18;;;4.50;;
20888;SDS011;10604;51.976;7.594;2023-05-24T09:12:56;16.30;;;4.63;;
20888;SDS011;10604;51.976;7.594;2023-05-24T09:15:22;12.63;;;4.35;;
20888;SDS011;10604;51.976;7.594;2023-05-24T09:17:48;13.98;;;4.70;;
20888;SDS011;10604;51.976;7.594;2023-05-24T09:20:13;13.73;;;4.57;;
20888;SDS011;10604;51.976;7.594;2023-05-24T09:22:42;15.07;;;4.88;;
20888;SDS011;10604;51.976;7.594;2023-05-24T09:25:08;13.50;;;4.93;;
20888;SDS011;10604;51.976;7.594;2023-05-24T09:27:35;13.30;;;4.53;;
20888;SDS011;10604;51.976;7.594;2023-05-24T09:30:01;15.98;;;4.53;;
20888;SDS011;10604;51.976;7.594;2023-05-24T09:32:29;12.75;;;4.90;;
20888;SDS011;10604;51.976;7.594;2023-05-24T09:34:55;14.30;;;4.32;;
20888;SDS011;10604;51.976;7.594;2023-05-24T09:37:22;13.25;;;4.70;;
20888;SDS011;10604;51.976;7.594;2023-05-24T09:39:51;13.73;;;4.83;;
20888;SDS011;10604;51.976;7.594;2023-05-24T09:42:18;11.45;;;4.43;;
20888;SDS011;10604;51.976;7.594;2023-05-24T09:44:57;12.93;;;4.35;;
20888;SDS011;10604;51.976;7.594;2023-05-24T09:47:31;14.82;;;4.75;;
20888;SDS011;10604;51.976;7.594;2023-05-24T09:49:58;12.95;;;4.70;;
20888;SDS011;10604;51.976;7.594;2023-05-24T09:52:24;18.77;;;4.72;;
20888;SDS011;10604;51.976;7.594;2023-05-24T09:54:49;13.97;;;4.77;;
20888;SDS011;10604;51.976;7.594;2023-05-24T09:57:15;14.48;;;4.90;;
20888;SDS011;10604;51.976;7.594;2023-05-24T09:59:41;10.07;;;4.80;;
20888;SDS011;10604;51.976;7.594;2023-05-24T10:02:11;11.30;;;4.17;;
20888;SDS011;10604;51.976;7.594;2023-05-24T10:04:37;14.40;;;4.63;;
20888;SDS011;10604;51.976;7.594;2023-05-24T10:07:04;13.40;;;5.17;;
20888;SDS011;10604;51.976;7.594;2023-05-24T10:09:30;14.43;;;4.93;;
20888;SDS011;10604;51.976;7.594;2023-05-24T10:12:02;16.95;;;4.80;;
20888;SDS011;10604;51.976;7.594;2023-05-24T10:14:30;14.50;;;4.50;;
20888;SDS011;10604;51.976;7.594;2023-05-24T10:17:01;12.85;;;4.10;;
20888;SDS011;10604;51.976;7.594;2023-05-24T10:19:33;13.40;;;4.20;;
20888;SDS011;10604;51.976;7.594;2023-05-24T10:21:59;13.93;;;4.17;;
20888;SDS011;10604;51.976;7.594;2023-05-24T10:24:31;11.37;;;4.50;;
20888;SDS011;10604;51.976;7.594;2023-05-24T10:27:00;13.13;;;4.45;;
20888;SDS011;10604;51.976;7.594;2023-05-24T10:32:00;15.20;;;4.40;;
20888;SDS011;10604;51.976;7.594;2023-05-24T10:34:28;15.23;;;4.55;;
20888;SDS011;10604;51.976;7.594;2023-05-24T10:36:55;13.00;;;4.38;;
20888;SDS011;10604;51.976;7.594;2023-05-24T10:39:23;14.27;;;4.28;;
20888;SDS011;10604;51.976;7.594;2023-05-24T10:41:49;12.75;;;4.57;;
20888;SDS011;10604;51.976;7.594;2023-05-24T10:44:17;12.00;;;4.28;;
20888;SDS011;10604;51.976;7.594;2023-05-24T10:49:32;11.80;;;3.93;;
20888;SDS011;10604;51.976;7.594;2023-05-24T10:52:01;14.70;;;4.45;;
20888;SDS011;10604;51.976;7.594;2023-05-24T10:54:31;15.60;;;4.57;;
20888;SDS011;10604;51.976;7.594;2023-05-24T10:56:59;13.50;;;4.37;;
20888;SDS011;10604;51.976;7.594;2023-05-24T10:59:29;12.23;;;4.13;;
20888;SDS011;10604;51.976;7.594;2023-05-24T11:01:58;11.02;;;4.03;;
20888;SDS011;10604;51.976;7.594;2023-05-24T11:04:24;13.77;;;4.40;;
20888;SDS011;10604;51.976;7.594;2023-05-24T11:09:21;13.82;;;4.38;;
20888;SDS011;10604;51.976;7.594;2023-05-24T11:11:48;12.18;;;4.18;;
20888;SDS011;10604;51.976;7.594;2023-05-24T11:14:18;13.13;;;4.30;;
20888;SDS011;10604;51.976;7.594;2023-05-24T11:16:44;14.85;;;4.47;;
20888;SDS011;10604;51.976;7.594;2023-05-24T11:19:11;14.85;;;4.32;;
20888;SDS011;10604;51.976;7.594;2023-05-24T11:21:38;12.35;;;4.22;;
20888;SDS011;10604;51.976;7.594;2023-05-24T11:24:05;14.98;;;4.45;;
20888;SDS011;10604;51.976;7.594;2023-05-24T11:26:31;16.52;;;4.75;;
20888;SDS011;10604;51.976;7.594;2023-05-24T11:28:56;13.47;;;4.77;;
20888;SDS011;10604;51.976;7.594;2023-05-24T11:31:27;12.15;;;4.38;;
20888;SDS011;10604;51.976;7.594;2023-05-24T11:33:52;11.65;;;4.55;;
20888;SDS011;10604;51.976;7.594;2023-05-24T11:36:19;12.77;;;4.77;;
20888;SDS011;10604;51.976;7.594;2023-05-24T11:38:45;13.65;;;4.60;;
20888;SDS011;10604;51.976;7.594;2023-05-24T11:41:11;12.23;;;4.68;;
20888;SDS011;10604;51.976;7.594;2023-05-24T11:43:37;12.57;;;4.25;;
20888;SDS011;10604;51.976;7.594;2023-05-24T11:46:03;11.60;;;4.67;;
20888;SDS011;10604;51.976;7.594;2023-05-24T11:48:28;12.50;;;4.60;;
20888;SDS011;10604;51.976;7.594;2023-05-24T11:50:54;15.20;;;4.57;;
20888;SDS011;10604;51.976;7.594;2023-05-24T11:53:20;13.35;;;4.97;;
20888;SDS011;10604;51.976;7.594;2023-05-24T11:55:46;13.37;;;4.37;;
20888;SDS011;10604;51.976;7.594;2023-05-24T12:00:43;14.63;;;4.30;;
20888;SDS011;10604;51.976;7.594;2023-05-24T12:03:09;10.80;;;4.53;;
20888;SDS011;10604;51.976;7.594;2023-05-24T12:05:36;12.63;;;4.45;;
20888;SDS011;10604;51.976;7.594;2023-05-24T12:08:05;12.97;;;3.93;;
20888;SDS011;10604;51.976;7.594;2023-05-24T12:10:35;11.37;;;4.17;;
20888;SDS011;10604;51.976;7.594;2023-05-24T12:13:02;11.95;;;4.10;;
20888;SDS011;10604;51.976;7.594;2023-05-24T12:15:28;13.32;;;4.30;;
20888;SDS011;10604;51.976;7.594;2023-05-24T12:17:55;13.13;;;3.87;;
20888;SDS011;10604;51.976;7.594;2023-05-24T12:20:21;11.65;;;4.10;;
20888;SDS011;10604;51.976;7.594;2023-05-24T12:22:48;13.15;;;4.55;;
20888;SDS011;10604;51.976;7.594;2023-05-24T12:25:17;11.65;;;4.28;;
20888;SDS011;10604;51.976;7.594;2023-05-24T12:27:45;12.80;;;4.57;;
20888;SDS011;10604;51.976;7.594;2023-05-24T12:30:12;12.98;;;4.28;;
20888;SDS011;10604;51.976;7.594;2023-05-24T12:32:44;11.68;;;4.30;;
20888;SDS011;10604;51.976;7.594;2023-05-24T12:35:11;14.63;;;4.40;;
20888;SDS011;10604;51.976;7.594;2023-05-24T12:37:36;11.43;;;4.20;;
20888;SDS011;10604;51.976;7.594;2023-05-24T12:40:02;15.48;;;4.40;;
20888;SDS011;10604;51.976;7.594;2023-05-24T12:42:29;12.43;;;4.60;;
20888;SDS011;10604;51.976;7.594;2023-05-24T12:44:54;11.00;;;4.13;;
20888;SDS011;10604;51.976;7.594;2023-05-24T12:47:20;12.13;;;4.20;;
20888;SDS011;10604;51.976;7.594;2023-05-24T12:49:45;12.45;;;4.25;;
20888;SDS011;10604;51.976;7.594;2023-05-24T12:52:11;15.50;;;4.80;;
20888;SDS011;10604;51.976;7.594;2023-05-24T12:54:37;13.70;;;5.05;;
20888;SDS011;10604;51.976;7.594;2023-05-24T12:57:02;12.07;;;4.80;;
20888;SDS011;10604;51.976;7.594;2023-05-24T12:59:28;11.52;;;4.47;;
20888;SDS011;10604;51.976;7.594;2023-05-24T13:01:53;13.23;;;4.37;;
20888;SDS011;10604;51.976;7.594;2023-05-24T13:04:19;13.63;;;4.93;;
20888;SDS011;10604;51.976;7.594;2023-05-24T13:06:46;13.00;;;4.85;;
20888;SDS011;10604;51.976;7.594;2023-05-24T13:09:12;13.18;;;4.50;;
20888;SDS011;10604;51.976;7.594;2023-05-24T13:11:38;12.50;;;4.43;;
20888;SDS011;10604;51.976;7.594;2023-05-24T13:14:03;10.70;;;4.53;;
20888;SDS011;10604;51.976;7.594;2023-05-24T13:16:29;13.95;;;5.00;;
20888;SDS011;10604;51.976;7.594;2023-05-24T13:18:54;13.43;;;4.73;;
20888;SDS011;10604;51.976;7.594;2023-05-24T13:21:20;14.30;;;4.72;;
20888;SDS011;10604;51.976;7.594;2023-05-24T13:23:46;15.00;;;4.93;;
20888;SDS011;10604;51.976;7.594;2023-05-24T13:26:12;13.67;;;4.43;;
20888;SDS011;10604;51.976;7.594;2023-05-24T13:28:38;12.50;;;4.57;;
20888;SDS011;10604;51.976;7.594;2023-05-24T13:31:03;13.63;;;4.72;;
20888;SDS011;10604;51.976;7.594;2023-05-24T13:33:32;11.60;;;4.80;;
20888;SDS011;10604;51.976;7.594;2023-05-24T13:35:57;16.55;;;4.80;;
20888;SDS011;10604;51.976;7.594;2023-05-24T13:38:23;9.98;;;4.40;;
20888;SDS011;10604;51.976;7.594;2023-05-24T13:40:49;12.27;;;4.80;;
20888;SDS011;10604;51.976;7.594;2023-05-24T13:43:15;12.30;;;4.70;;
20888;SDS011;10604;51.976;7.594;2023-05-24T13:45:41;12.83;;;4.83;;
20888;SDS011;10604;51.976;7.594;2023-05-24T13:48:06;11.93;;;4.50;;
20888;SDS011;10604;51.976;7.594;2023-05-24T13:50:32;15.13;;;6.57;;
20888;SDS011;10604;51.976;7.594;2023-05-24T13:52:59;14.82;;;5.10;;
20888;SDS011;10604;51.976;7.594;2023-05-24T13:55:26;13.60;;;4.80;;
20888;SDS011;10604;51.976;7.594;2023-05-24T13:57:55;13.32;;;4.55;;
20888;SDS011;10604;51.976;7.594;2023-05-24T14:00:21;15.10;;;4.55;;
20888;SDS011;10604;51.976;7.594;2023-05-24T14:02:47;12.48;;;4.38;;
20888;SDS011;10604;51.976;7.594;2023-05-24T14:05:13;15.30;;;4.95;;
20888;SDS011;10604;51.976;7.594;2023-05-24T14:07:38;12.73;;;4.53;;
20888;SDS011;10604;51.976;7.594;2023-05-24T14:10:04;14.57;;;4.95;;
20888;SDS011;10604;51.976;7.594;2023-05-24T14:12:31;11.70;;;4.60;;
20888;SDS011;10604;51.976;7.594;2023-05-24T14:14:56;11.23;;;4.97;;
20888;SDS011;10604;51.976;7.594;2023-05-24T14:17:22;13.50;;;4.93;;
20888;SDS011;10604;51.976;7.594;2023-05-24T14:19:47;10.00;;;4.40;;
20888;SDS011;10604;51.976;7.594;2023-05-24T14:22:12;12.43;;;4.40;;
20888;SDS011;10604;51.976;7.594;2023-05-24T14:24:38;9.57;;;4.13;;
20888;SDS011;10604;51.976;7.594;2023-05-24T14:27:03;10.38;;;4.10;;
20888;SDS011;10604;51.976;7.594;2023-05-24T14:29:30;15.23;;;4.50;;
20888;SDS011;10604;51.976;7.594;2023-05-24T14:31:56;9.57;;;4.30;;
20888;SDS011;10604;51.976;7.594;2023-05-24T14:34:21;14.87;;;4.53;;
20888;SDS011;10604;51.976;7.594;2023-05-24T14:36:47;9.83;;;3.90;;
20888;SDS011;10604;51.976;7.594;2023-05-24T14:39:12;8.43;;;3.60;;
20888;SDS011;10604;51.976;7.594;2023-05-24T14:41:38;10.93;;;3.80;;
20888;SDS011;10604;51.976;7.594;2023-05-24T14:44:03;11.90;;;3.80;;
20888;SDS011;10604;51.976;7.594;2023-05-24T14:46:29;8.70;;;3.80;;
20888;SDS011;10604;51.976;7.594;2023-05-24T14:48:54;9.13;;;3.60;;
20888;SDS011;10604;51.976;7.594;2023-05-24T14:51:20;10.23;;;3.43;;
20888;SDS011;10604;51.976;7.594;2023-05-24T14:53:45;9.20;;;3.80;;
20888;SDS011;10604;51.976;7.594;2023-05-24T14:56:11;10.43;;;4.10;;
20888;SDS011;10604;51.976;7.594;2023-05-24T14:58:38;10.25;;;3.65;;
20888;SDS011;10604;51.976;7.594;2023-05-24T15:01:04;10.00;;;3.97;;